sensor_id;sensor_type;location;lat;lon;timestamp;P1;durP1;ratioP1;P2;durP2;ratioP2
44816;SDS011;30529;53.570;9.964;2022-09-20T00:00:45;6.50;;;2.60;;
44816;SDS011;30529;53.570;9.964;2022-09-20T00:03:13;7.13;;;1.80;;
44816;SDS011;30529;53.570;9.964;2022-09-20T00:05:41;13.73;;;2.53;;
44816;SDS011;30529;53.570;9.964;2022-09-20T00:08:10;6.87;;;2.00;;
44816;SDS011;30529;53.570;9.964;2022-09-20T00:10:39;13.07;;;3.30;;
44816;SDS011;30529;53.570;9.964;2022-09-20T00:13:06;10.37;;;2.73;;
44816;SDS011;30529;53.570;9.964;2022-09-20T00:15:39;10.60;;;2.40;;
44816;SDS011;30529;53.570;9.964;2022-09-20T00:18:08;11.80;;;2.20;;
44816;SDS011;30529;53.570;9.964;2022-09-20T00:20:36;9.00;;;2.10;;
44816;SDS011;30529;53.570;9.964;2022-09-20T00:23:08;13.63;;;2.40;;
44816;SDS011;30529;53.570;9.964;2022-09-20T00:25:34;10.97;;;2.63;;
44816;SDS011;30529;53.570;9.964;2022-09-20T00:28:01;10.13;;;2.10;;
44816;SDS011;30529;53.570;9.964;2022-09-20T00:30:27;10.47;;;2.13;;
44816;SDS011;30529;53.570;9.964;2022-09-20T00:32:54;10.20;;;2.60;;
44816;SDS011;30529;53.570;9.964;2022-09-20T00:35:20;11.07;;;2.57;;
44816;SDS011;30529;53.570;9.964;2022-09-20T00:37:46;9.30;;;2.13;;
44816;SDS011;30529;53.570;9.964;2022-09-20T00:40:14;6.67;;;1.80;;
44816;SDS011;30529;53.570;9.964;2022-09-20T00:42:42;10.00;;;2.07;;
44816;SDS011;30529;53.570;9.964;2022-09-20T00:47:57;13.10;;;2.10;;
44816;SDS011;30529;53.570;9.964;2022-09-20T00:50:30;8.50;;;2.57;;
44816;SDS011;30529;53.570;9.964;2022-09-20T00:55:44;6.30;;;2.20;;
44816;SDS011;30529;53.570;9.964;2022-09-20T00:58:35;10.03;;;2.03;;
44816;SDS011;30529;53.570;9.964;2022-09-20T01:01:05;7.37;;;2.40;;
44816;SDS011;30529;53.570;9.964;2022-09-20T01:03:32;7.60;;;2.13;;
44816;SDS011;30529;53.570;9.964;2022-09-20T01:06:02;14.00;;;2.53;;
44816;SDS011;30529;53.570;9.964;2022-09-20T01:08:31;11.63;;;2.53;;
44816;SDS011;30529;53.570;9.964;2022-09-20T01:11:00;8.67;;;1.87;;
44816;SDS011;30529;53.570;9.964;2022-09-20T01:13:26;7.97;;;2.43;;
44816;SDS011;30529;53.570;9.964;2022-09-20T01:15:52;9.30;;;2.17;;
44816;SDS011;30529;53.570;9.964;2022-09-20T01:18:19;7.67;;;2.17;;
44816;SDS011;30529;53.570;9.964;2022-09-20T01:20:48;8.93;;;2.07;;
44816;SDS011;30529;53.570;9.964;2022-09-20T01:23:22;7.00;;;2.07;;
44816;SDS011;30529;53.570;9.964;2022-09-20T01:26:22;10.03;;;2.47;;
44816;SDS011;30529;53.570;9.964;2022-09-20T01:31:55;11.90;;;3.17;;
44816;SDS011;30529;53.570;9.964;2022-09-20T01:34:31;9.20;;;2.47;;
44816;SDS011;30529;53.570;9.964;2022-09-20T01:39:37;13.60;;;2.83;;
44816;SDS011;30529;53.570;9.964;2022-09-20T01:42:26;14.33;;;2.60;;
44816;SDS011;30529;53.570;9.964;2022-09-20T01:48:12;7.00;;;2.63;;
44816;SDS011;30529;53.570;9.964;2022-09-20T02:05:23;8.77;;;2.60;;
44816;SDS011;30529;53.570;9.964;2022-09-20T02:11:19;8.73;;;2.50;;
44816;SDS011;30529;53.570;9.964;2022-09-20T02:33:55;7.93;;;2.40;;
44816;SDS011;30529;53.570;9.964;2022-09-20T02:39:33;6.33;;;2.23;;
44816;SDS011;30529;53.570;9.964;2022-09-20T02:42:12;7.13;;;2.40;;
44816;SDS011;30529;53.570;9.964;2022-09-20T02:44:54;6.93;;;2.10;;
44816;SDS011;30529;53.570;9.964;2022-09-20T02:47:36;8.93;;;2.37;;
44816;SDS011;30529;53.570;9.964;2022-09-20T03:01:51;6.60;;;1.80;;
44816;SDS011;30529;53.570;9.964;2022-09-20T03:12:56;5.30;;;2.00;;
44816;SDS011;30529;53.570;9.964;2022-09-20T03:16:00;8.73;;;2.03;;
44816;SDS011;30529;53.570;9.964;2022-09-20T03:21:41;5.37;;;1.70;;
44816;SDS011;30529;53.570;9.964;2022-09-20T03:24:27;7.73;;;1.70;;
44816;SDS011;30529;53.570;9.964;2022-09-20T03:32:48;5.40;;;1.83;;
44816;SDS011;30529;53.570;9.964;2022-09-20T03:38:34;6.47;;;1.80;;
44816;SDS011;30529;53.570;9.964;2022-09-20T03:41:21;6.97;;;2.00;;
44816;SDS011;30529;53.570;9.964;2022-09-20T03:59:51;5.33;;;1.60;;
44816;SDS011;30529;53.570;9.964;2022-09-20T04:05:16;4.10;;;1.63;;
44816;SDS011;30529;53.570;9.964;2022-09-20T04:13:37;5.50;;;2.10;;
44816;SDS011;30529;53.570;9.964;2022-09-20T04:18:55;3.07;;;1.73;;
44816;SDS011;30529;53.570;9.964;2022-09-20T04:21:33;4.37;;;1.87;;
44816;SDS011;30529;53.570;9.964;2022-09-20T04:27:24;4.43;;;1.77;;
44816;SDS011;30529;53.570;9.964;2022-09-20T04:38:18;10.13;;;1.97;;
44816;SDS011;30529;53.570;9.964;2022-09-20T05:09:27;3.13;;;1.70;;
44816;SDS011;30529;53.570;9.964;2022-09-20T05:12:34;5.43;;;2.00;;
44816;SDS011;30529;53.570;9.964;2022-09-20T05:21:31;6.77;;;2.30;;
44816;SDS011;30529;53.570;9.964;2022-09-20T05:24:04;6.83;;;2.20;;
44816;SDS011;30529;53.570;9.964;2022-09-20T05:34:32;5.63;;;2.20;;
44816;SDS011;30529;53.570;9.964;2022-09-20T05:37:14;8.90;;;2.33;;
44816;SDS011;30529;53.570;9.964;2022-09-20T05:39:51;6.27;;;2.57;;
44816;SDS011;30529;53.570;9.964;2022-09-20T05:42:50;5.50;;;1.83;;
44816;SDS011;30529;53.570;9.964;2022-09-20T05:51:35;6.23;;;1.70;;
44816;SDS011;30529;53.570;9.964;2022-09-20T05:57:13;6.30;;;1.87;;
44816;SDS011;30529;53.570;9.964;2022-09-20T05:59:46;4.43;;;1.90;;
44816;SDS011;30529;53.570;9.964;2022-09-20T06:02:51;6.67;;;1.60;;
44816;SDS011;30529;53.570;9.964;2022-09-20T06:05:57;5.57;;;1.70;;
44816;SDS011;30529;53.570;9.964;2022-09-20T06:09:10;5.60;;;1.70;;
44816;SDS011;30529;53.570;9.964;2022-09-20T06:11:47;4.90;;;1.90;;
44816;SDS011;30529;53.570;9.964;2022-09-20T06:22:39;5.63;;;1.70;;
44816;SDS011;30529;53.570;9.964;2022-09-20T06:27:38;3.93;;;1.60;;
44816;SDS011;30529;53.570;9.964;2022-09-20T06:30:19;6.50;;;1.70;;
44816;SDS011;30529;53.570;9.964;2022-09-20T06:32:56;10.27;;;2.80;;
44816;SDS011;30529;53.570;9.964;2022-09-20T06:35:35;5.17;;;1.63;;
44816;SDS011;30529;53.570;9.964;2022-09-20T06:41:24;7.77;;;1.70;;
44816;SDS011;30529;53.570;9.964;2022-09-20T06:43:59;5.00;;;1.80;;
44816;SDS011;30529;53.570;9.964;2022-09-20T06:46:26;6.70;;;1.67;;
44816;SDS011;30529;53.570;9.964;2022-09-20T06:48:54;8.07;;;2.27;;
44816;SDS011;30529;53.570;9.964;2022-09-20T06:51:21;5.57;;;1.67;;
44816;SDS011;30529;53.570;9.964;2022-09-20T06:53:50;7.30;;;1.60;;
44816;SDS011;30529;53.570;9.964;2022-09-20T06:56:19;7.60;;;1.63;;
44816;SDS011;30529;53.570;9.964;2022-09-20T06:58:48;8.03;;;1.80;;
44816;SDS011;30529;53.570;9.964;2022-09-20T07:01:14;7.13;;;1.90;;
44816;SDS011;30529;53.570;9.964;2022-09-20T07:03:40;9.90;;;1.60;;
44816;SDS011;30529;53.570;9.964;2022-09-20T07:06:07;8.00;;;2.10;;
44816;SDS011;30529;53.570;9.964;2022-09-20T07:08:34;8.00;;;2.10;;
44816;SDS011;30529;53.570;9.964;2022-09-20T07:11:08;8.70;;;2.10;;
44816;SDS011;30529;53.570;9.964;2022-09-20T07:13:37;9.63;;;2.23;;
44816;SDS011;30529;53.570;9.964;2022-09-20T07:16:04;7.73;;;2.40;;
44816;SDS011;30529;53.570;9.964;2022-09-20T07:18:32;10.13;;;1.73;;
44816;SDS011;30529;53.570;9.964;2022-09-20T07:20:59;8.77;;;1.77;;
44816;SDS011;30529;53.570;9.964;2022-09-20T07:23:26;9.67;;;2.10;;
44816;SDS011;30529;53.570;9.964;2022-09-20T07:25:54;7.77;;;1.53;;
44816;SDS011;30529;53.570;9.964;2022-09-20T07:28:23;8.37;;;1.70;;
44816;SDS011;30529;53.570;9.964;2022-09-20T07:30:50;6.33;;;1.73;;
44816;SDS011;30529;53.570;9.964;2022-09-20T07:33:16;7.40;;;1.97;;
44816;SDS011;30529;53.570;9.964;2022-09-20T07:35:46;8.37;;;1.97;;
44816;SDS011;30529;53.570;9.964;2022-09-20T07:38:13;11.93;;;1.70;;
44816;SDS011;30529;53.570;9.964;2022-09-20T07:40:41;9.03;;;1.80;;
44816;SDS011;30529;53.570;9.964;2022-09-20T07:43:09;5.50;;;1.53;;
44816;SDS011;30529;53.570;9.964;2022-09-20T07:45:36;6.03;;;1.47;;
44816;SDS011;30529;53.570;9.964;2022-09-20T07:48:05;8.27;;;2.60;;
44816;SDS011;30529;53.570;9.964;2022-09-20T07:50:34;10.47;;;2.00;;
44816;SDS011;30529;53.570;9.964;2022-09-20T07:53:01;7.57;;;1.53;;
44816;SDS011;30529;53.570;9.964;2022-09-20T07:55:29;9.20;;;1.90;;
44816;SDS011;30529;53.570;9.964;2022-09-20T07:57:55;11.83;;;2.30;;
44816;SDS011;30529;53.570;9.964;2022-09-20T08:00:21;7.17;;;1.40;;
44816;SDS011;30529;53.570;9.964;2022-09-20T08:02:55;10.97;;;1.67;;
44816;SDS011;30529;53.570;9.964;2022-09-20T08:05:23;6.80;;;1.47;;
44816;SDS011;30529;53.570;9.964;2022-09-20T08:07:49;9.77;;;1.73;;
44816;SDS011;30529;53.570;9.964;2022-09-20T08:10:15;7.73;;;2.03;;
44816;SDS011;30529;53.570;9.964;2022-09-20T08:12:42;9.90;;;1.97;;
44816;SDS011;30529;53.570;9.964;2022-09-20T08:15:08;9.23;;;1.70;;
44816;SDS011;30529;53.570;9.964;2022-09-20T08:17:34;5.80;;;1.63;;
44816;SDS011;30529;53.570;9.964;2022-09-20T08:20:00;11.43;;;1.80;;
44816;SDS011;30529;53.570;9.964;2022-09-20T08:22:27;8.47;;;1.90;;
44816;SDS011;30529;53.570;9.964;2022-09-20T08:24:53;7.03;;;1.77;;
44816;SDS011;30529;53.570;9.964;2022-09-20T08:27:19;6.57;;;1.67;;
44816;SDS011;30529;53.570;9.964;2022-09-20T08:29:45;9.13;;;1.67;;
44816;SDS011;30529;53.570;9.964;2022-09-20T08:32:11;7.10;;;1.83;;
44816;SDS011;30529;53.570;9.964;2022-09-20T08:34:37;12.90;;;1.97;;
44816;SDS011;30529;53.570;9.964;2022-09-20T08:37:04;7.10;;;1.40;;
44816;SDS011;30529;53.570;9.964;2022-09-20T08:39:30;9.33;;;1.63;;
44816;SDS011;30529;53.570;9.964;2022-09-20T08:42:08;9.17;;;1.60;;
44816;SDS011;30529;53.570;9.964;2022-09-20T08:44:45;7.97;;;1.97;;
44816;SDS011;30529;53.570;9.964;2022-09-20T08:49:45;8.53;;;1.33;;
44816;SDS011;30529;53.570;9.964;2022-09-20T08:52:15;8.13;;;1.63;;
44816;SDS011;30529;53.570;9.964;2022-09-20T08:54:43;4.60;;;1.50;;
44816;SDS011;30529;53.570;9.964;2022-09-20T08:57:13;5.93;;;1.87;;
44816;SDS011;30529;53.570;9.964;2022-09-20T08:59:41;8.60;;;1.53;;
44816;SDS011;30529;53.570;9.964;2022-09-20T09:02:15;9.10;;;1.47;;
44816;SDS011;30529;53.570;9.964;2022-09-20T09:04:44;7.07;;;1.37;;
44816;SDS011;30529;53.570;9.964;2022-09-20T09:07:11;10.13;;;1.60;;
44816;SDS011;30529;53.570;9.964;2022-09-20T09:09:40;7.67;;;1.40;;
44816;SDS011;30529;53.570;9.964;2022-09-20T09:12:20;9.80;;;2.50;;
44816;SDS011;30529;53.570;9.964;2022-09-20T09:14:50;8.57;;;1.47;;
44816;SDS011;30529;53.570;9.964;2022-09-20T09:17:25;7.17;;;1.43;;
44816;SDS011;30529;53.570;9.964;2022-09-20T09:20:06;9.30;;;1.80;;
44816;SDS011;30529;53.570;9.964;2022-09-20T09:22:40;10.37;;;1.87;;
44816;SDS011;30529;53.570;9.964;2022-09-20T09:25:18;8.90;;;1.63;;
44816;SDS011;30529;53.570;9.964;2022-09-20T09:27:50;10.10;;;1.57;;
44816;SDS011;30529;53.570;9.964;2022-09-20T09:30:25;8.37;;;1.50;;
44816;SDS011;30529;53.570;9.964;2022-09-20T09:35:51;9.73;;;1.53;;
44816;SDS011;30529;53.570;9.964;2022-09-20T09:38:25;5.07;;;1.73;;
44816;SDS011;30529;53.570;9.964;2022-09-20T09:40:53;9.90;;;1.70;;
44816;SDS011;30529;53.570;9.964;2022-09-20T09:43:23;7.77;;;1.57;;
44816;SDS011;30529;53.570;9.964;2022-09-20T09:45:53;7.40;;;1.63;;
44816;SDS011;30529;53.570;9.964;2022-09-20T09:51:05;10.73;;;1.63;;
44816;SDS011;30529;53.570;9.964;2022-09-20T09:53:36;5.10;;;1.50;;
44816;SDS011;30529;53.570;9.964;2022-09-20T09:56:07;5.67;;;1.47;;
44816;SDS011;30529;53.570;9.964;2022-09-20T10:04:25;5.40;;;1.20;;
44816;SDS011;30529;53.570;9.964;2022-09-20T10:10:10;8.07;;;1.87;;
44816;SDS011;30529;53.570;9.964;2022-09-20T10:12:43;5.77;;;1.47;;
44816;SDS011;30529;53.570;9.964;2022-09-20T10:20:48;6.93;;;1.50;;
44816;SDS011;30529;53.570;9.964;2022-09-20T10:23:28;6.77;;;1.13;;
44816;SDS011;30529;53.570;9.964;2022-09-20T10:26:14;3.63;;;1.10;;
44816;SDS011;30529;53.570;9.964;2022-09-20T10:28:58;8.27;;;1.67;;
44816;SDS011;30529;53.570;9.964;2022-09-20T10:40:32;5.13;;;1.23;;
44816;SDS011;30529;53.570;9.964;2022-09-20T10:43:56;6.07;;;1.30;;
44816;SDS011;30529;53.570;9.964;2022-09-20T10:54:53;7.73;;;1.60;;
44816;SDS011;30529;53.570;9.964;2022-09-20T11:00:19;4.80;;;1.40;;
44816;SDS011;30529;53.570;9.964;2022-09-20T11:05:32;5.20;;;1.30;;
44816;SDS011;30529;53.570;9.964;2022-09-20T11:08:19;4.20;;;1.27;;
44816;SDS011;30529;53.570;9.964;2022-09-20T11:10:51;4.63;;;1.40;;
44816;SDS011;30529;53.570;9.964;2022-09-20T11:15:59;5.00;;;1.70;;
44816;SDS011;30529;53.570;9.964;2022-09-20T11:21:14;5.63;;;1.60;;
44816;SDS011;30529;53.570;9.964;2022-09-20T11:23:55;6.70;;;1.37;;
44816;SDS011;30529;53.570;9.964;2022-09-20T11:29:19;6.97;;;1.60;;
44816;SDS011;30529;53.570;9.964;2022-09-20T11:34:58;3.70;;;1.23;;
44816;SDS011;30529;53.570;9.964;2022-09-20T11:37:51;6.70;;;2.10;;
44816;SDS011;30529;53.570;9.964;2022-09-20T11:40:26;4.37;;;1.30;;
44816;SDS011;30529;53.570;9.964;2022-09-20T11:42:57;7.30;;;1.60;;
44816;SDS011;30529;53.570;9.964;2022-09-20T11:45:26;5.67;;;1.43;;
44816;SDS011;30529;53.570;9.964;2022-09-20T11:47:55;5.03;;;1.13;;
44816;SDS011;30529;53.570;9.964;2022-09-20T11:56:22;3.73;;;1.13;;
44816;SDS011;30529;53.570;9.964;2022-09-20T11:58:50;10.23;;;1.70;;
44816;SDS011;30529;53.570;9.964;2022-09-20T12:01:22;7.10;;;2.00;;
44816;SDS011;30529;53.570;9.964;2022-09-20T12:04:05;4.73;;;1.17;;
44816;SDS011;30529;53.570;9.964;2022-09-20T12:06:39;4.87;;;1.40;;
44816;SDS011;30529;53.570;9.964;2022-09-20T12:09:23;4.00;;;1.27;;
44816;SDS011;30529;53.570;9.964;2022-09-20T12:11:53;7.63;;;1.00;;
44816;SDS011;30529;53.570;9.964;2022-09-20T12:14:27;4.17;;;1.00;;
44816;SDS011;30529;53.570;9.964;2022-09-20T12:16:56;8.27;;;2.03;;
44816;SDS011;30529;53.570;9.964;2022-09-20T12:24:25;5.87;;;1.30;;
44816;SDS011;30529;53.570;9.964;2022-09-20T12:26:59;5.43;;;1.30;;
44816;SDS011;30529;53.570;9.964;2022-09-20T12:32:39;4.40;;;0.97;;
44816;SDS011;30529;53.570;9.964;2022-09-20T12:38:19;4.87;;;1.30;;
44816;SDS011;30529;53.570;9.964;2022-09-20T12:41:09;2.47;;;1.00;;
44816;SDS011;30529;53.570;9.964;2022-09-20T12:43:48;6.73;;;1.37;;
44816;SDS011;30529;53.570;9.964;2022-09-20T12:46:34;7.70;;;1.23;;
44816;SDS011;30529;53.570;9.964;2022-09-20T12:49:38;3.17;;;1.10;;
44816;SDS011;30529;53.570;9.964;2022-09-20T12:58:37;4.87;;;1.13;;
44816;SDS011;30529;53.570;9.964;2022-09-20T13:03:43;8.63;;;1.20;;
44816;SDS011;30529;53.570;9.964;2022-09-20T13:14:01;2.53;;;1.23;;
44816;SDS011;30529;53.570;9.964;2022-09-20T13:16:52;4.63;;;1.00;;
44816;SDS011;30529;53.570;9.964;2022-09-20T13:22:11;3.77;;;1.00;;
44816;SDS011;30529;53.570;9.964;2022-09-20T13:24:48;4.43;;;1.10;;
44816;SDS011;30529;53.570;9.964;2022-09-20T13:27:29;4.87;;;1.00;;
44816;SDS011;30529;53.570;9.964;2022-09-20T13:30:16;6.30;;;1.50;;
44816;SDS011;30529;53.570;9.964;2022-09-20T13:32:47;3.23;;;0.93;;
44816;SDS011;30529;53.570;9.964;2022-09-20T13:35:20;4.27;;;1.10;;
44816;SDS011;30529;53.570;9.964;2022-09-20T13:42:53;3.20;;;1.00;;
44816;SDS011;30529;53.570;9.964;2022-09-20T13:45:24;5.17;;;1.23;;
44816;SDS011;30529;53.570;9.964;2022-09-20T13:47:51;4.77;;;1.70;;
44816;SDS011;30529;53.570;9.964;2022-09-20T13:50:37;3.90;;;1.20;;
44816;SDS011;30529;53.570;9.964;2022-09-20T13:53:14;2.90;;;1.30;;
44816;SDS011;30529;53.570;9.964;2022-09-20T13:55:42;4.03;;;1.23;;
44816;SDS011;30529;53.570;9.964;2022-09-20T13:58:29;4.07;;;1.10;;
44816;SDS011;30529;53.570;9.964;2022-09-20T14:00:59;3.70;;;1.10;;
44816;SDS011;30529;53.570;9.964;2022-09-20T14:03:27;5.33;;;1.10;;
44816;SDS011;30529;53.570;9.964;2022-09-20T14:05:55;5.47;;;1.23;;
44816;SDS011;30529;53.570;9.964;2022-09-20T14:08:27;2.37;;;0.77;;
44816;SDS011;30529;53.570;9.964;2022-09-20T14:11:04;3.73;;;1.43;;
44816;SDS011;30529;53.570;9.964;2022-09-20T14:13:53;5.40;;;1.27;;
44816;SDS011;30529;53.570;9.964;2022-09-20T14:16:22;3.93;;;1.30;;
44816;SDS011;30529;53.570;9.964;2022-09-20T14:18:52;2.00;;;0.83;;
44816;SDS011;30529;53.570;9.964;2022-09-20T14:21:21;3.10;;;1.23;;
44816;SDS011;30529;53.570;9.964;2022-09-20T14:23:56;3.53;;;1.00;;
44816;SDS011;30529;53.570;9.964;2022-09-20T14:26:59;5.00;;;1.10;;
44816;SDS011;30529;53.570;9.964;2022-09-20T14:32:04;3.80;;;1.00;;
44816;SDS011;30529;53.570;9.964;2022-09-20T14:37:30;6.70;;;1.13;;
44816;SDS011;30529;53.570;9.964;2022-09-20T14:45:34;3.27;;;1.47;;
44816;SDS011;30529;53.570;9.964;2022-09-20T14:50:35;3.80;;;1.30;;
44816;SDS011;30529;53.570;9.964;2022-09-20T14:55:30;5.83;;;0.90;;
44816;SDS011;30529;53.570;9.964;2022-09-20T14:57:58;5.47;;;1.00;;
44816;SDS011;30529;53.570;9.964;2022-09-20T15:00:55;2.70;;;0.83;;
44816;SDS011;30529;53.570;9.964;2022-09-20T15:03:30;6.17;;;1.43;;
44816;SDS011;30529;53.570;9.964;2022-09-20T15:05:58;4.83;;;1.30;;
44816;SDS011;30529;53.570;9.964;2022-09-20T15:08:28;3.87;;;1.17;;
44816;SDS011;30529;53.570;9.964;2022-09-20T15:10:55;4.43;;;0.90;;
44816;SDS011;30529;53.570;9.964;2022-09-20T15:13:21;3.73;;;0.80;;
44816;SDS011;30529;53.570;9.964;2022-09-20T15:15:48;6.13;;;1.53;;
44816;SDS011;30529;53.570;9.964;2022-09-20T15:18:20;4.67;;;1.80;;
44816;SDS011;30529;53.570;9.964;2022-09-20T15:20:49;6.43;;;1.33;;
44816;SDS011;30529;53.570;9.964;2022-09-20T15:23:16;6.50;;;1.40;;
44816;SDS011;30529;53.570;9.964;2022-09-20T15:25:43;4.83;;;1.30;;
44816;SDS011;30529;53.570;9.964;2022-09-20T15:28:13;5.87;;;1.17;;
44816;SDS011;30529;53.570;9.964;2022-09-20T15:30:48;3.27;;;0.90;;
44816;SDS011;30529;53.570;9.964;2022-09-20T15:33:16;2.53;;;1.23;;
44816;SDS011;30529;53.570;9.964;2022-09-20T15:35:43;7.73;;;1.27;;
44816;SDS011;30529;53.570;9.964;2022-09-20T15:38:10;4.07;;;0.80;;
44816;SDS011;30529;53.570;9.964;2022-09-20T15:40:38;3.23;;;0.90;;
44816;SDS011;30529;53.570;9.964;2022-09-20T15:43:05;3.93;;;1.00;;
44816;SDS011;30529;53.570;9.964;2022-09-20T15:45:34;3.40;;;1.10;;
44816;SDS011;30529;53.570;9.964;2022-09-20T15:48:00;2.30;;;0.87;;
44816;SDS011;30529;53.570;9.964;2022-09-20T15:50:27;3.97;;;0.90;;
44816;SDS011;30529;53.570;9.964;2022-09-20T15:52:53;5.67;;;1.00;;
44816;SDS011;30529;53.570;9.964;2022-09-20T15:55:20;4.80;;;1.03;;
44816;SDS011;30529;53.570;9.964;2022-09-20T15:57:46;4.93;;;1.23;;
44816;SDS011;30529;53.570;9.964;2022-09-20T16:00:15;4.77;;;1.10;;
44816;SDS011;30529;53.570;9.964;2022-09-20T16:02:47;8.50;;;1.70;;
44816;SDS011;30529;53.570;9.964;2022-09-20T16:05:14;4.47;;;0.87;;
44816;SDS011;30529;53.570;9.964;2022-09-20T16:07:40;7.30;;;1.47;;
44816;SDS011;30529;53.570;9.964;2022-09-20T16:10:07;7.40;;;1.30;;
44816;SDS011;30529;53.570;9.964;2022-09-20T16:12:33;4.43;;;0.90;;
44816;SDS011;30529;53.570;9.964;2022-09-20T16:14:59;1.90;;;1.03;;
44816;SDS011;30529;53.570;9.964;2022-09-20T16:17:25;3.47;;;1.20;;
44816;SDS011;30529;53.570;9.964;2022-09-20T16:20:10;5.90;;;1.40;;
44816;SDS011;30529;53.570;9.964;2022-09-20T16:22:36;3.17;;;0.97;;
44816;SDS011;30529;53.570;9.964;2022-09-20T16:25:02;3.87;;;1.20;;
44816;SDS011;30529;53.570;9.964;2022-09-20T16:27:30;3.33;;;1.20;;
44816;SDS011;30529;53.570;9.964;2022-09-20T16:29:59;4.43;;;1.23;;
44816;SDS011;30529;53.570;9.964;2022-09-20T16:32:30;2.93;;;1.17;;
44816;SDS011;30529;53.570;9.964;2022-09-20T16:34:56;3.67;;;1.27;;
44816;SDS011;30529;53.570;9.964;2022-09-20T16:37:25;4.43;;;1.33;;
44816;SDS011;30529;53.570;9.964;2022-09-20T16:39:57;5.37;;;1.30;;
44816;SDS011;30529;53.570;9.964;2022-09-20T16:42:29;7.97;;;1.17;;
44816;SDS011;30529;53.570;9.964;2022-09-20T16:44:56;4.20;;;0.90;;
44816;SDS011;30529;53.570;9.964;2022-09-20T16:47:22;6.97;;;1.40;;
44816;SDS011;30529;53.570;9.964;2022-09-20T16:49:49;5.27;;;1.53;;
44816;SDS011;30529;53.570;9.964;2022-09-20T16:52:17;6.13;;;1.60;;
44816;SDS011;30529;53.570;9.964;2022-09-20T16:54:44;4.43;;;1.40;;
44816;SDS011;30529;53.570;9.964;2022-09-20T16:57:11;4.17;;;1.50;;
44816;SDS011;30529;53.570;9.964;2022-09-20T16:59:39;4.50;;;1.80;;
44816;SDS011;30529;53.570;9.964;2022-09-20T17:02:05;5.13;;;1.70;;
44816;SDS011;30529;53.570;9.964;2022-09-20T17:04:35;5.87;;;1.40;;
44816;SDS011;30529;53.570;9.964;2022-09-20T17:07:01;9.00;;;1.90;;
44816;SDS011;30529;53.570;9.964;2022-09-20T17:09:27;7.43;;;1.60;;
44816;SDS011;30529;53.570;9.964;2022-09-20T17:11:53;7.40;;;1.83;;
44816;SDS011;30529;53.570;9.964;2022-09-20T17:14:20;4.13;;;1.87;;
44816;SDS011;30529;53.570;9.964;2022-09-20T17:16:46;7.00;;;1.83;;
44816;SDS011;30529;53.570;9.964;2022-09-20T17:19:17;6.67;;;2.13;;
44816;SDS011;30529;53.570;9.964;2022-09-20T17:21:45;7.17;;;1.57;;
44816;SDS011;30529;53.570;9.964;2022-09-20T17:24:15;6.00;;;1.60;;
44816;SDS011;30529;53.570;9.964;2022-09-20T17:26:42;4.13;;;1.80;;
44816;SDS011;30529;53.570;9.964;2022-09-20T17:29:10;4.67;;;1.50;;
44816;SDS011;30529;53.570;9.964;2022-09-20T17:31:40;4.87;;;1.67;;
44816;SDS011;30529;53.570;9.964;2022-09-20T17:34:12;5.57;;;1.87;;
44816;SDS011;30529;53.570;9.964;2022-09-20T17:36:46;9.20;;;1.57;;
44816;SDS011;30529;53.570;9.964;2022-09-20T17:39:13;3.73;;;1.40;;
44816;SDS011;30529;53.570;9.964;2022-09-20T17:41:44;7.30;;;1.50;;
44816;SDS011;30529;53.570;9.964;2022-09-20T17:44:11;7.80;;;1.67;;
44816;SDS011;30529;53.570;9.964;2022-09-20T17:46:38;7.93;;;2.00;;
44816;SDS011;30529;53.570;9.964;2022-09-20T17:49:09;5.87;;;1.50;;
44816;SDS011;30529;53.570;9.964;2022-09-20T17:51:41;6.43;;;1.90;;
44816;SDS011;30529;53.570;9.964;2022-09-20T17:54:09;8.73;;;1.70;;
44816;SDS011;30529;53.570;9.964;2022-09-20T17:56:39;7.87;;;1.97;;
44816;SDS011;30529;53.570;9.964;2022-09-20T17:59:07;6.90;;;2.27;;
44816;SDS011;30529;53.570;9.964;2022-09-20T18:01:34;10.60;;;2.07;;
44816;SDS011;30529;53.570;9.964;2022-09-20T18:04:02;6.27;;;1.50;;
44816;SDS011;30529;53.570;9.964;2022-09-20T18:06:30;6.17;;;1.63;;
44816;SDS011;30529;53.570;9.964;2022-09-20T18:09:01;6.80;;;1.80;;
44816;SDS011;30529;53.570;9.964;2022-09-20T18:11:37;6.93;;;1.60;;
44816;SDS011;30529;53.570;9.964;2022-09-20T18:14:09;7.33;;;1.60;;
44816;SDS011;30529;53.570;9.964;2022-09-20T18:16:35;5.73;;;1.57;;
44816;SDS011;30529;53.570;9.964;2022-09-20T18:19:03;6.63;;;2.10;;
44816;SDS011;30529;53.570;9.964;2022-09-20T18:21:30;5.60;;;1.87;;
44816;SDS011;30529;53.570;9.964;2022-09-20T18:23:59;5.90;;;1.60;;
44816;SDS011;30529;53.570;9.964;2022-09-20T18:26:27;4.33;;;1.50;;
44816;SDS011;30529;53.570;9.964;2022-09-20T18:29:06;7.83;;;1.93;;
44816;SDS011;30529;53.570;9.964;2022-09-20T18:34:12;5.37;;;1.47;;
44816;SDS011;30529;53.570;9.964;2022-09-20T18:36:39;6.13;;;2.03;;
44816;SDS011;30529;53.570;9.964;2022-09-20T18:39:06;3.77;;;1.80;;
44816;SDS011;30529;53.570;9.964;2022-09-20T18:41:33;6.83;;;2.00;;
44816;SDS011;30529;53.570;9.964;2022-09-20T18:44:03;6.13;;;2.00;;
44816;SDS011;30529;53.570;9.964;2022-09-20T18:46:31;7.00;;;2.20;;
44816;SDS011;30529;53.570;9.964;2022-09-20T18:49:04;6.37;;;2.00;;
44816;SDS011;30529;53.570;9.964;2022-09-20T18:51:34;7.37;;;2.23;;
44816;SDS011;30529;53.570;9.964;2022-09-20T18:54:00;5.03;;;2.10;;
44816;SDS011;30529;53.570;9.964;2022-09-20T18:58:57;6.13;;;2.57;;
44816;SDS011;30529;53.570;9.964;2022-09-20T19:06:54;7.57;;;1.80;;
44816;SDS011;30529;53.570;9.964;2022-09-20T19:26:07;6.97;;;2.20;;
44816;SDS011;30529;53.570;9.964;2022-09-20T19:28:43;4.97;;;2.00;;
44816;SDS011;30529;53.570;9.964;2022-09-20T19:31:11;9.17;;;2.20;;
44816;SDS011;30529;53.570;9.964;2022-09-20T19:33:48;11.60;;;2.30;;
44816;SDS011;30529;53.570;9.964;2022-09-20T19:36:15;9.03;;;2.90;;
44816;SDS011;30529;53.570;9.964;2022-09-20T19:38:44;11.60;;;3.47;;
44816;SDS011;30529;53.570;9.964;2022-09-20T19:46:56;9.13;;;3.23;;
44816;SDS011;30529;53.570;9.964;2022-09-20T19:49:55;5.87;;;2.53;;
44816;SDS011;30529;53.570;9.964;2022-09-20T19:52:31;8.27;;;2.87;;
44816;SDS011;30529;53.570;9.964;2022-09-20T19:54:58;12.40;;;2.90;;
44816;SDS011;30529;53.570;9.964;2022-09-20T19:57:29;11.37;;;3.23;;
44816;SDS011;30529;53.570;9.964;2022-09-20T20:00:10;6.83;;;2.77;;
44816;SDS011;30529;53.570;9.964;2022-09-20T20:02:41;5.67;;;2.40;;
44816;SDS011;30529;53.570;9.964;2022-09-20T20:05:12;8.40;;;2.83;;
44816;SDS011;30529;53.570;9.964;2022-09-20T20:07:42;6.50;;;2.50;;
44816;SDS011;30529;53.570;9.964;2022-09-20T20:13:00;6.90;;;2.67;;
44816;SDS011;30529;53.570;9.964;2022-09-20T20:15:57;7.13;;;2.33;;
44816;SDS011;30529;53.570;9.964;2022-09-20T20:18:45;9.47;;;2.97;;
44816;SDS011;30529;53.570;9.964;2022-09-20T20:21:29;8.70;;;3.10;;
44816;SDS011;30529;53.570;9.964;2022-09-20T20:26:47;7.33;;;2.90;;
44816;SDS011;30529;53.570;9.964;2022-09-20T20:29:13;5.17;;;2.70;;
44816;SDS011;30529;53.570;9.964;2022-09-20T20:31:39;7.23;;;3.10;;
44816;SDS011;30529;53.570;9.964;2022-09-20T20:34:06;7.03;;;3.23;;
44816;SDS011;30529;53.570;9.964;2022-09-20T20:36:33;7.73;;;3.07;;
44816;SDS011;30529;53.570;9.964;2022-09-20T20:38:59;8.27;;;3.40;;
44816;SDS011;30529;53.570;9.964;2022-09-20T20:41:26;11.07;;;3.53;;
44816;SDS011;30529;53.570;9.964;2022-09-20T20:43:54;7.70;;;3.43;;
44816;SDS011;30529;53.570;9.964;2022-09-20T20:46:20;8.80;;;4.00;;
44816;SDS011;30529;53.570;9.964;2022-09-20T20:48:46;5.83;;;3.10;;
44816;SDS011;30529;53.570;9.964;2022-09-20T20:51:17;6.70;;;3.13;;
44816;SDS011;30529;53.570;9.964;2022-09-20T20:53:48;5.40;;;2.53;;
44816;SDS011;30529;53.570;9.964;2022-09-20T20:56:17;9.30;;;2.90;;
44816;SDS011;30529;53.570;9.964;2022-09-20T20:58:46;6.67;;;2.90;;
44816;SDS011;30529;53.570;9.964;2022-09-20T21:01:19;8.57;;;3.20;;